Time;durP1;ratioP1;P1;durP2;ratioP2;P2;SDS_P1;SDS_P2;PMS_P1;PMS_P2;Temp;Humidity;BMP_temperature;BMP_pressure;BME280_temperature;BME280_humidity;BME280_pressure;Samples;Min_cycle;Max_cycle;Signal;HPM_P1;HPM_P2
2022/11/09 00:01:12;;;;;;;23.50;16.60;;;;;;;13.24;74.78;95213.25;4978321;28;20224;-77
2022/11/09 00:03:39;;;;;;;21.53;17.37;;;;;;;13.25;74.75;95212.28;4978656;28;20198;-76
2022/11/09 00:06:07;;;;;;;22.73;15.73;;;;;;;13.20;74.92;95206.75;4979923;28;20190;-77
2022/11/09 00:08:36;;;;;;;21.07;16.13;;;;;;;13.13;74.74;95198.00;4977311;28;20185;-78
2022/11/09 00:11:04;;;;;;;22.17;16.47;;;;;;;13.29;74.71;95219.56;4957322;28;20202;-79
2022/11/09 00:13:31;;;;;;;23.10;16.90;;;;;;;13.30;74.71;95220.41;4972531;28;20657;-76
2022/11/09 00:15:58;;;;;;;21.20;17.23;;;;;;;13.32;74.86;95225.38;4973170;28;20193;-79
2022/11/09 00:18:25;;;;;;;23.37;16.57;;;;;;;13.32;74.69;95215.91;4973402;28;20204;-81
2022/11/09 00:20:52;;;;;;;22.80;15.87;;;;;;;13.34;74.82;95218.34;4973767;28;20186;-81
2022/11/09 00:23:20;;;;;;;21.67;17.20;;;;;;;13.34;74.82;95226.03;4972681;28;20217;-78
2022/11/09 00:25:47;;;;;;;21.50;16.33;;;;;;;13.37;74.83;95215.50;4972300;28;20204;-77
2022/11/09 00:28:14;;;;;;;22.57;17.37;;;;;;;13.39;74.77;95221.31;4971606;28;20206;-79
2022/11/09 00:30:41;;;;;;;25.20;16.23;;;;;;;13.39;74.75;95222.13;4972223;28;20204;-83
2022/11/09 00:33:09;;;;;;;25.53;18.03;;;;;;;13.41;74.59;95216.84;4972901;28;20565;-82
2022/11/09 00:35:38;;;;;;;21.40;16.07;;;;;;;13.42;74.75;95216.69;4973205;28;20189;-81
2022/11/09 00:38:04;;;;;;;22.13;17.33;;;;;;;13.44;74.78;95219.94;4972985;28;20200;-82
2022/11/09 00:40:33;;;;;;;22.77;16.63;;;;;;;13.45;74.67;95211.25;4972870;28;20205;-82
2022/11/09 00:42:59;;;;;;;24.50;17.53;;;;;;;13.46;74.62;95218.00;4972021;28;20225;-82
2022/11/09 00:45:26;;;;;;;24.27;16.77;;;;;;;13.48;74.75;95212.75;4972955;28;20572;-83
2022/11/09 00:47:53;;;;;;;22.50;16.73;;;;;;;13.49;74.64;95207.47;4972343;28;20208;-83
2022/11/09 00:50:20;;;;;;;24.80;17.20;;;;;;;13.49;74.54;95210.03;4973193;28;20189;-84
2022/11/09 00:52:47;;;;;;;22.53;16.40;;;;;;;13.21;74.63;95162.97;4973439;28;20193;-82
2022/11/09 00:55:14;;;;;;;21.10;16.17;;;;;;;13.48;74.69;95208.41;4973308;28;20194;-81
2022/11/09 00:57:42;;;;;;;26.27;17.23;;;;;;;13.48;74.82;95207.63;4971415;28;20225;-83
2022/11/09 01:00:11;;;;;;;21.67;16.53;;;;;;;13.47;74.80;95211.09;4972398;28;20194;-84
2022/11/09 01:02:38;;;;;;;20.80;16.27;;;;;;;13.37;74.90;95197.50;4973733;28;20256;-82
2022/11/09 01:05:05;;;;;;;22.03;16.03;;;;;;;13.44;74.82;95211.41;4973246;28;20208;-80
2022/11/09 01:07:32;;;;;;;21.50;16.27;;;;;;;13.45;75.08;95210.47;4972094;28;20569;-80
2022/11/09 01:09:59;;;;;;;20.33;15.60;;;;;;;13.44;74.87;95209.66;4971462;28;20186;-80
2022/11/09 01:12:26;;;;;;;20.17;16.27;;;;;;;13.42;74.89;95208.97;4971919;28;20638;-82
2022/11/09 01:14:54;;;;;;;20.97;14.70;;;;;;;13.42;74.90;95213.31;4972693;28;20194;-79
2022/11/09 01:17:21;;;;;;;20.93;15.57;;;;;;;13.40;74.88;95216.03;4972315;28;20186;-82
2022/11/09 01:19:48;;;;;;;25.07;16.33;;;;;;;13.38;74.79;95212.78;4972228;28;20200;-80
2022/11/09 01:22:14;;;;;;;18.97;14.13;;;;;;;13.39;74.80;95208.47;4976817;28;20236;-81
2022/11/09 01:24:41;;;;;;;20.07;15.83;;;;;;;13.36;74.83;95204.41;4980446;28;20194;-79
2022/11/09 01:27:08;;;;;;;21.43;15.00;;;;;;;13.37;75.00;95205.22;4979562;28;20201;-77
2022/11/09 01:29:35;;;;;;;18.97;15.20;;;;;;;13.29;75.18;95200.78;4981926;28;20201;-77
2022/11/09 01:32:03;;;;;;;18.23;14.77;;;;;;;13.34;74.80;95211.44;4978340;28;20201;-79
2022/11/09 01:34:30;;;;;;;17.20;14.70;;;;;;;13.33;75.01;95211.59;4978467;28;20221;-78
2022/11/09 01:36:58;;;;;;;21.47;15.67;;;;;;;13.29;74.86;95198.22;4978967;28;20193;-78
2022/11/09 01:39:24;;;;;;;20.30;15.27;;;;;;;13.26;74.99;95196.75;4981325;28;20208;-78
2022/11/09 01:41:51;;;;;;;19.97;14.40;;;;;;;13.30;74.88;95199.84;4978072;28;20236;-78
2022/11/09 01:44:20;;;;;;;23.93;15.97;;;;;;;13.26;74.85;95196.75;4980316;28;20202;-79
2022/11/09 01:46:51;;;;;;;18.87;15.57;;;;;;;13.25;74.78;95191.75;4980344;28;20197;-77
2022/11/09 01:49:39;;;;;;;17.47;15.13;;;;;;;13.22;74.98;95195.41;4986689;28;20185;-77
2022/11/09 01:52:12;;;;;;;21.40;15.60;;;;;;;13.19;74.93;95195.66;4991068;28;20216;-79
2022/11/09 01:54:41;;;;;;;17.50;14.97;;;;;;;13.06;75.08;95182.34;4977856;28;20194;-78
2022/11/09 01:57:12;;;;;;;21.33;16.00;;;;;;;13.12;75.11;95196.34;4975781;28;20225;-79
2022/11/09 01:59:44;;;;;;;18.33;14.40;;;;;;;13.02;75.03;95184.38;4975699;28;20661;-83
2022/11/09 02:02:12;;;;;;;20.27;14.10;;;;;;;13.12;75.02;95198.94;4975277;28;20233;-80
2022/11/09 02:04:47;;;;;;;19.03;14.73;;;;;;;13.02;75.11;95189.50;4974972;28;20202;-79
2022/11/09 02:07:14;;;;;;;21.63;15.00;;;;;;;13.07;75.01;95202.72;4974728;28;20572;-78
2022/11/09 02:09:48;;;;;;;20.70;15.17;;;;;;;13.07;75.21;95205.28;4975293;28;20201;-80
2022/11/09 02:12:17;;;;;;;21.83;15.23;;;;;;;13.06;75.10;95203.69;4974794;28;20193;-80
2022/11/09 02:14:45;;;;;;;18.77;14.53;;;;;;;13.06;75.13;95206.25;4974948;28;20201;-81
2022/11/09 02:17:12;;;;;;;20.43;15.43;;;;;;;13.06;75.16;95205.44;4976414;28;20190;-79
2022/11/09 02:19:40;;;;;;;19.33;15.00;;;;;;;13.05;75.05;95203.81;4980271;28;20202;-78
2022/11/09 02:22:09;;;;;;;20.10;14.93;;;;;;;13.07;74.96;95217.31;4978172;28;20229;-79
2022/11/09 02:24:35;;;;;;;22.50;14.40;;;;;;;12.98;74.91;95197.63;4979781;28;20189;-77
2022/11/09 02:27:06;;;;;;;17.40;14.77;;;;;;;13.04;75.04;95215.06;4980806;28;20198;-77
2022/11/09 02:29:37;;;;;;;21.27;15.13;;;;;;;13.05;75.11;95209.78;4980549;28;20198;-81
2022/11/09 02:32:10;;;;;;;21.20;14.57;;;;;;;13.05;75.01;95208.97;4979531;28;20198;-79
2022/11/09 02:34:36;;;;;;;19.70;15.27;;;;;;;13.02;75.13;95209.25;4980911;28;20661;-79
2022/11/09 02:37:03;;;;;;;21.03;15.57;;;;;;;13.02;75.18;95209.25;4979877;28;20189;-78
2022/11/09 02:39:32;;;;;;;20.73;15.53;;;;;;;12.99;75.08;95212.88;4979403;28;20204;-79
2022/11/09 02:42:02;;;;;;;20.17;14.50;;;;;;;12.80;74.95;95189.84;4976563;28;20194;-79
2022/11/09 02:44:32;;;;;;;21.70;15.07;;;;;;;12.89;75.19;95196.72;4977690;28;20185;-77
2022/11/09 02:47:00;;;;;;;20.07;14.77;;;;;;;12.83;75.05;95186.19;4976749;28;20211;-77
2022/11/09 02:49:26;;;;;;;18.87;14.70;;;;;;;12.83;75.03;95202.41;4979639;28;20193;-77
2022/11/09 02:51:53;;;;;;;18.30;15.23;;;;;;;12.81;75.24;95191.44;4978984;28;20190;-77
2022/11/09 02:54:20;;;;;;;17.30;14.47;;;;;;;12.87;75.16;95211.44;4978595;28;20212;-79
2022/11/09 02:56:48;;;;;;;22.13;15.03;;;;;;;12.85;75.11;95210.75;4974157;28;20237;-78
2022/11/09 02:59:16;;;;;;;19.73;15.23;;;;;;;12.83;75.12;95212.69;4973001;28;20194;-79
2022/11/09 03:01:42;;;;;;;19.80;14.70;;;;;;;12.78;75.17;95212.28;4973381;28;20197;-79
2022/11/09 03:04:09;;;;;;;19.73;15.00;;;;;;;12.76;75.26;95209.03;4973167;28;20224;-80
2022/11/09 03:06:36;;;;;;;19.80;15.27;;;;;;;12.68;75.33;95198.63;4973068;28;20194;-81
2022/11/09 03:09:05;;;;;;;19.07;14.63;;;;;;;12.68;75.35;95211.47;4973209;28;20193;-79
2022/11/09 03:11:32;;;;;;;19.60;15.30;;;;;;;12.68;75.21;95217.41;4972984;28;20200;-80
2022/11/09 03:14:00;;;;;;;18.90;14.80;;;;;;;12.63;75.13;95221.34;4972999;28;20201;-79
2022/11/09 03:16:27;;;;;;;19.03;14.87;;;;;;;12.63;75.26;95217.03;4973327;28;20201;-80
2022/11/09 03:18:55;;;;;;;20.63;14.80;;;;;;;12.60;75.19;95221.59;4972457;28;20198;-78
2022/11/09 03:21:22;;;;;;;22.67;16.93;;;;;;;12.58;75.26;95216.63;4972962;28;20205;-79
2022/11/09 03:23:49;;;;;;;20.27;15.60;;;;;;;12.48;75.34;95208.94;4972429;28;20229;-81
2022/11/09 03:26:16;;;;;;;19.60;15.33;;;;;;;12.52;75.24;95218.00;4972760;28;20193;-80
2022/11/09 03:28:43;;;;;;;20.13;15.50;;;;;;;12.38;75.20;95197.06;4972442;28;20257;-80
2022/11/09 03:31:12;;;;;;;18.17;14.43;;;;;;;12.46;75.22;95215.94;4972460;28;20197;-79
2022/11/09 03:33:39;;;;;;;17.23;14.57;;;;;;;12.43;75.18;95211.09;4972835;28;20201;-79
2022/11/09 03:36:06;;;;;;;21.90;15.40;;;;;;;12.41;75.12;95218.13;4971500;28;20190;-78
2022/11/09 03:38:33;;;;;;;21.60;14.87;;;;;;;12.41;75.31;95218.13;4972729;28;20198;-81
2022/11/09 03:41:00;;;;;;;19.97;15.33;;;;;;;12.37;75.26;95223.66;4972467;28;20205;-79
2022/11/09 03:43:27;;;;;;;20.93;15.73;;;;;;;12.32;75.22;95224.06;4972303;28;20218;-78
2022/11/09 03:45:55;;;;;;;22.17;14.93;;;;;;;12.33;75.40;95228.25;4972174;28;20577;-77
2022/11/09 03:48:23;;;;;;;21.60;15.30;;;;;;;12.30;75.26;95224.22;4984187;28;20193;-77
2022/11/09 03:50:50;;;;;;;19.67;15.10;;;;;;;12.30;75.33;95226.78;4986656;28;20185;-78
2022/11/09 03:53:17;;;;;;;21.70;16.13;;;;;;;12.20;75.18;95213.13;4975654;28;20186;-81
2022/11/09 03:55:44;;;;;;;17.97;14.17;;;;;;;12.26;75.32;95222.88;4973070;28;20194;-77
2022/11/09 03:58:12;;;;;;;19.33;16.10;;;;;;;12.26;75.62;95228.00;4973190;28;20233;-78
2022/11/09 04:00:39;;;;;;;19.97;15.80;;;;;;;12.21;75.45;95225.00;4973467;28;20264;-79
2022/11/09 04:03:05;;;;;;;21.87;15.63;;;;;;;12.22;75.27;95225.84;4973670;28;20216;-79
2022/11/09 04:05:34;;;;;;;18.90;14.73;;;;;;;12.17;75.40;95217.72;4973675;28;20209;-77
2022/11/09 04:08:01;;;;;;;21.27;16.30;;;;;;;12.17;75.25;95227.97;4982659;28;20182;-77
2022/11/09 04:10:27;;;;;;;17.47;15.00;;;;;;;12.17;75.41;95227.97;4979425;28;20201;-77
2022/11/09 04:12:54;;;;;;;18.60;15.10;;;;;;;12.17;75.30;95227.97;4977523;28;20198;-78
2022/11/09 04:15:22;;;;;;;21.13;16.30;;;;;;;11.94;75.17;95200.03;4979834;28;20193;-77
2022/11/09 04:17:56;;;;;;;20.23;15.20;;;;;;;12.12;75.35;95223.25;4974688;28;20201;-80
2022/11/09 04:20:23;;;;;;;20.37;15.50;;;;;;;12.11;75.28;95226.75;4973140;28;20220;-82
2022/11/09 04:22:56;;;;;;;24.80;16.93;;;;;;;12.09;75.08;95225.25;4973218;28;20603;-78
2022/11/09 04:25:24;;;;;;;22.67;16.10;;;;;;;12.08;75.42;95226.22;4974069;28;20202;-80
2022/11/09 04:27:54;;;;;;;20.67;15.83;;;;;;;12.04;75.45;95220.53;4974868;28;20190;-78
2022/11/09 04:30:21;;;;;;;22.50;14.90;;;;;;;12.01;75.32;95220.81;4975119;28;20205;-81
2022/11/09 04:32:49;;;;;;;17.30;14.83;;;;;;;12.02;75.22;95219.88;4981502;28;20202;-80
2022/11/09 04:35:15;;;;;;;21.90;16.40;;;;;;;11.92;75.20;95212.19;4980335;28;20197;-77
2022/11/09 04:37:42;;;;;;;17.00;14.50;;;;;;;12.00;75.31;95224.31;4981152;28;20190;-79
2022/11/09 04:40:12;;;;;;;18.17;14.47;;;;;;;11.98;75.27;95221.88;4981978;28;20673;-78
2022/11/09 04:42:39;;;;;;;20.53;15.03;;;;;;;11.97;75.44;95227.16;4981215;28;20229;-79
2022/11/09 04:45:07;;;;;;;20.07;16.03;;;;;;;11.95;75.52;95227.25;4980149;28;20205;-78
2022/11/09 04:47:33;;;;;;;21.80;15.33;;;;;;;11.95;75.40;95224.69;4978575;28;21557;-78
2022/11/09 04:50:00;;;;;;;24.50;16.37;;;;;;;11.93;75.56;95229.16;4980003;28;20186;-78
2022/11/09 04:52:28;;;;;;;19.00;14.90;;;;;;;11.92;75.43;95229.31;4972691;28;20192;-80
2022/11/09 04:54:54;;;;;;;20.33;15.67;;;;;;;11.87;75.45;95227.13;4972314;28;20662;-80
2022/11/09 04:57:23;;;;;;;25.20;15.77;;;;;;;11.93;75.69;95230.91;4974337;28;20225;-82
2022/11/09 04:59:50;;;;;;;18.57;14.23;;;;;;;11.86;75.55;95229.81;4975706;28;20185;-78
2022/11/09 05:02:16;;;;;;;19.63;15.37;;;;;;;11.91;75.52;95233.59;4975573;28;20190;-80
2022/11/09 05:04:44;;;;;;;20.67;14.73;;;;;;;11.91;75.77;95236.16;4977814;28;20205;-82
2022/11/09 05:07:10;;;;;;;19.13;14.37;;;;;;;11.89;75.65;95227.00;4983992;28;20193;-78
2022/11/09 05:09:37;;;;;;;22.13;15.97;;;;;;;11.96;75.60;95235.75;4979237;28;20186;-80
2022/11/09 05:12:05;;;;;;;20.03;15.07;;;;;;;11.98;75.52;95241.59;4977102;28;20238;-80
2022/11/09 05:14:33;;;;;;;21.03;16.17;;;;;;;12.00;75.34;95240.53;4976399;28;20197;-79
2022/11/09 05:17:01;;;;;;;21.30;16.23;;;;;;;12.01;75.80;95244.69;4977779;28;20201;-86
2022/11/09 05:19:28;;;;;;;21.93;15.43;;;;;;;11.96;75.61;95236.59;4976671;28;20190;-84
2022/11/09 05:21:55;;;;;;;20.63;16.43;;;;;;;12.04;75.70;95249.53;4959624;28;20206;-84
2022/11/09 05:24:21;;;;;;;18.33;14.80;;;;;;;12.07;75.50;95250.22;4955945;29;20221;-83
2022/11/09 05:26:48;;;;;;;22.23;15.30;;;;;;;12.09;75.55;95254.28;4968007;28;20198;-87
2022/11/09 05:29:14;;;;;;;20.60;15.97;;;;;;;12.11;75.40;95257.53;4975828;28;20190;-83
2022/11/09 05:31:44;;;;;;;21.07;14.80;;;;;;;12.01;75.42;95238.75;4975106;28;20208;-82
2022/11/09 05:34:13;;;;;;;23.30;15.43;;;;;;;12.14;75.53;95253.88;4975593;28;20205;-85
2022/11/09 05:36:40;;;;;;;20.27;15.67;;;;;;;12.22;75.47;95254.84;4975606;28;20229;-82
2022/11/09 05:39:07;;;;;;;21.63;16.50;;;;;;;12.05;75.55;95227.31;4974962;28;20190;-87
2022/11/09 05:41:34;;;;;;;23.87;16.27;;;;;;;12.33;75.26;95260.78;4974964;28;20194;-84
2022/11/09 05:44:01;;;;;;;20.10;16.27;;;;;;;12.28;75.65;95240.66;4973792;28;20214;-80
2022/11/09 05:46:30;;;;;;;25.80;16.80;;;;;;;12.40;75.23;95254.97;4979184;28;20202;-86
2022/11/09 05:48:58;;;;;;;21.37;16.00;;;;;;;12.50;75.16;95260.91;4993475;28;20724;-84
2022/11/09 05:51:25;;;;;;;17.97;14.43;;;;;;;12.55;74.91;95268.19;4985807;28;20222;-82
2022/11/09 05:53:52;;;;;;;20.90;15.77;;;;;;;12.62;75.07;95268.47;4975337;28;20190;-84
2022/11/09 05:56:19;;;;;;;21.80;15.27;;;;;;;12.58;74.97;95264.56;4974795;28;20213;-87
2022/11/09 05:58:46;;;;;;;21.47;15.67;;;;;;;12.69;74.84;95274.66;4972738;28;20229;-83
2022/11/09 06:01:14;;;;;;;23.97;17.00;;;;;;;12.78;74.72;95281.59;4972988;28;20193;-80
2022/11/09 06:03:42;;;;;;;25.33;17.07;;;;;;;12.84;74.64;95288.72;4972497;28;20209;-79
2022/11/09 06:06:15;;;;;;;23.93;17.40;;;;;;;12.92;74.51;95280.34;4971061;28;20204;-83
2022/11/09 06:08:42;;;;;;;24.60;16.17;;;;;;;12.84;74.37;95263.06;4974216;28;20194;-84
2022/11/09 06:11:13;;;;;;;20.60;16.10;;;;;;;13.05;74.55;95288.56;4974553;28;20194;-81
2022/11/09 06:13:40;;;;;;;24.87;17.90;;;;;;;12.95;74.28;95262.06;4975169;28;20210;-82
2022/11/09 06:16:07;;;;;;;22.27;16.03;;;;;;;13.18;74.11;95288.28;4974373;28;20256;-83
2022/11/09 06:18:36;;;;;;;23.63;17.30;;;;;;;13.25;74.68;95290.16;4974455;28;20649;-82
2022/11/09 06:21:05;;;;;;;23.07;16.60;;;;;;;13.34;73.97;95295.41;4974869;28;20660;-83
2022/11/09 06:23:34;;;;;;;27.57;16.73;;;;;;;13.24;73.77;95273.13;4974147;28;20213;-82
2022/11/09 06:26:02;;;;;;;23.47;16.50;;;;;;;13.33;73.83;95273.25;4974691;28;20258;-85
2022/11/09 06:28:29;;;;;;;22.67;17.20;;;;;;;13.58;73.66;95297.50;4974267;28;20198;-83
2022/11/09 06:30:58;;;;;;;23.37;17.27;;;;;;;13.42;73.50;95257.78;4974396;28;20189;-85
2022/11/09 06:33:25;;;;;;;23.33;17.20;;;;;;;13.70;73.60;95286.91;4974278;28;20194;-83
2022/11/09 06:35:52;;;;;;;22.70;15.87;;;;;;;13.86;73.50;95290.59;4974465;28;20198;-82
2022/11/09 06:38:25;;;;;;;22.60;15.77;;;;;;;13.79;73.12;95267.25;4973836;28;20198;-83
2022/11/09 06:44:35;;;;;;;23.63;15.83;;;;;;;14.27;72.87;95300.41;4918728;29;20266;-82
2022/11/09 06:47:02;;;;;;;25.47;16.70;;;;;;;14.37;72.54;95292.59;4933751;29;20194;-83
2022/11/09 06:49:30;;;;;;;24.57;17.40;;;;;;;14.40;72.68;95260.63;4934772;29;20255;-83
2022/11/09 06:51:57;;;;;;;22.43;16.50;;;;;;;14.99;72.81;95301.22;4936266;29;20294;-84
2022/11/09 06:54:24;;;;;;;26.17;16.30;;;;;;;15.38;73.06;95298.28;4936925;29;20202;-82
2022/11/09 06:56:53;;;;;;;26.10;16.23;;;;;;;15.81;73.46;95299.16;4938112;29;20661;-82
2022/11/09 06:59:20;;;;;;;22.17;15.33;;;;;;;16.23;73.50;95288.00;4938419;29;20592;-81
2022/11/09 07:01:50;;;;;;;19.93;15.40;;;;;;;16.82;73.26;95299.09;4940712;29;20183;-81
2022/11/09 07:04:17;;;;;;;18.80;14.90;;;;;;;17.33;72.62;95304.09;4946067;29;20258;-83
2022/11/09 07:06:44;;;;;;;20.10;14.77;;;;;;;17.78;71.96;95293.16;4944254;29;20682;-83
2022/11/09 07:09:11;;;;;;;19.83;14.67;;;;;;;18.08;71.03;95265.69;4943824;29;20383;-84
2022/11/09 07:11:38;;;;;;;22.27;15.40;;;;;;;18.70;70.08;95286.41;4942966;29;20198;-84
2022/11/09 07:14:05;;;;;;;20.40;15.33;;;;;;;19.19;69.39;95300.75;4943711;29;20669;-82
2022/11/09 07:16:32;;;;;;;22.00;13.73;;;;;;;19.60;68.55;95295.97;4939841;29;20251;-82
2022/11/09 07:19:01;;;;;;;19.13;13.90;;;;;;;19.84;67.30;95273.34;4958425;28;20194;-83
2022/11/09 07:21:27;;;;;;;20.30;14.63;;;;;;;20.38;66.71;95297.19;4973982;28;20281;-84
2022/11/09 07:23:54;;;;;;;18.80;13.57;;;;;;;20.33;65.59;95229.38;4974078;28;20218;-85
2022/11/09 07:26:21;;;;;;;18.80;14.93;;;;;;;20.87;64.99;95267.09;4974160;28;20669;-85
2022/11/09 07:28:49;;;;;;;16.67;14.07;;;;;;;21.28;64.29;95285.41;4973996;28;20194;-85
2022/11/09 07:31:16;;;;;;;16.95;14.27;;;;;;;21.52;63.59;95281.59;4974246;28;20792;-84
2022/11/09 07:33:43;;;;;;;16.88;13.93;;;;;;;21.67;62.60;95253.66;4974011;28;20194;-86
2022/11/09 07:36:11;;;;;;;17.83;14.40;;;;;;;22.22;61.94;95304.00;4973806;28;20189;-84
2022/11/09 07:38:38;;;;;;;15.32;13.45;;;;;;;22.38;61.48;95281.22;4973769;28;20276;-89
2022/11/09 07:41:05;;;;;;;18.00;13.80;;;;;;;22.69;60.96;95304.16;4973843;28;20212;-82
2022/11/09 07:43:35;;;;;;;16.50;13.15;;;;;;;22.83;60.42;95302.38;4974010;28;20225;-86
2022/11/09 07:46:04;;;;;;;16.30;13.50;;;;;;;22.70;60.66;95272.66;4974878;28;20236;-85
2022/11/09 07:48:31;;;;;;;16.70;13.55;;;;;;;22.84;60.23;95296.16;4989979;28;20201;-84
2022/11/09 07:51:01;;;;;;;16.98;14.40;;;;;;;22.78;59.71;95259.44;4987552;28;20197;-86
2022/11/09 07:53:30;;;;;;;17.13;14.48;;;;;;;23.13;59.05;95297.59;4975968;28;20687;-86
2022/11/09 07:55:58;;;;;;;17.15;13.95;;;;;;;23.14;58.41;95291.38;4974206;28;20182;-85
2022/11/09 07:58:25;;;;;;;19.35;15.82;;;;;;;23.10;58.28;95293.63;4972752;28;20724;-83
2022/11/09 08:00:52;;;;;;;18.25;15.10;;;;;;;23.02;57.60;95276.34;4973484;28;20194;-86
2022/11/09 08:03:20;;;;;;;16.15;13.13;;;;;;;23.13;57.47;95302.84;4973035;28;20185;-84
2022/11/09 08:05:47;;;;;;;18.70;14.88;;;;;;;22.92;57.50;95262.06;4973832;28;20252;-84
2022/11/09 08:08:15;;;;;;;17.45;14.57;;;;;;;23.20;57.16;95299.22;4973284;28;20209;-85
2022/11/09 08:10:49;;;;;;;16.65;14.95;;;;;;;22.73;56.84;95250.59;4973402;28;20197;-83
2022/11/09 08:13:16;;;;;;;16.98;13.52;;;;;;;22.84;57.31;95301.38;4973064;28;20202;-85
2022/11/09 08:15:43;;;;;;;15.98;14.27;;;;;;;22.66;57.46;95307.94;4974034;28;20190;-86
2022/11/09 08:18:13;;;;;;;18.35;15.30;;;;;;;22.46;57.68;95296.69;4973941;28;20209;-86
2022/11/09 08:20:40;;;;;;;19.08;15.38;;;;;;;22.39;57.46;95298.47;4972880;28;20193;-86
2022/11/09 08:23:07;;;;;;;21.33;14.90;;;;;;;22.26;57.85;95291.41;4973300;28;20198;-84
2022/11/09 08:25:34;;;;;;;19.33;15.57;;;;;;;22.15;57.86;95290.19;4972601;28;20225;-86
2022/11/09 08:28:03;;;;;;;18.67;15.52;;;;;;;21.99;57.60;95282.66;4972569;28;20189;-82
2022/11/09 08:30:30;;;;;;;22.63;16.83;;;;;;;21.99;57.86;95293.88;4972729;28;20197;-85
2022/11/09 08:32:58;;;;;;;19.30;14.88;;;;;;;21.89;57.46;95298.66;4973462;28;20192;-86
2022/11/09 08:35:26;;;;;;;17.67;14.88;;;;;;;21.87;57.49;95295.41;4972063;28;20264;-82
2022/11/09 08:37:54;;;;;;;18.92;15.07;;;;;;;21.74;57.49;95287.53;4972625;28;20664;-85
2022/11/09 08:40:23;;;;;;;20.83;15.48;;;;;;;21.54;57.56;95269.19;4972557;28;20197;-86
2022/11/09 08:42:52;;;;;;;20.40;14.73;;;;;;;21.66;57.51;95301.50;4972451;28;20198;-84
2022/11/09 08:45:21;;;;;;;19.85;15.23;;;;;;;21.53;57.58;95289.22;4972293;28;20713;-84
2022/11/09 08:47:48;;;;;;;18.40;15.15;;;;;;;21.51;57.60;95304.22;4973667;28;20200;-84
2022/11/09 08:50:15;;;;;;;21.35;15.93;;;;;;;21.45;57.70;95293.75;4976907;28;20209;-85
2022/11/09 08:52:42;;;;;;;17.92;14.32;;;;;;;21.34;57.73;95289.09;4982854;28;20200;-83
2022/11/09 08:55:10;;;;;;;21.27;16.20;;;;;;;21.33;58.08;95298.72;4983072;28;20198;-87
2022/11/09 08:57:36;;;;;;;18.40;14.73;;;;;;;21.14;57.90;95273.31;4975814;28;20225;-84
2022/11/09 09:00:05;;;;;;;21.52;15.40;;;;;;;21.19;57.97;95289.94;4972695;28;20572;-86
2022/11/09 09:02:33;;;;;;;19.33;16.13;;;;;;;21.19;57.83;95305.56;4972447;28;20723;-83
2022/11/09 09:05:00;;;;;;;20.98;16.27;;;;;;;21.07;57.74;95290.66;4972830;28;20232;-88
2022/11/09 09:07:27;;;;;;;22.20;15.48;;;;;;;21.11;57.73;95299.69;4972497;28;20197;-86
2022/11/09 09:09:54;;;;;;;26.73;15.93;;;;;;;20.97;57.53;95288.38;4973252;28;20679;-86
2022/11/09 09:12:20;;;;;;;21.95;15.73;;;;;;;20.84;57.73;95276.06;4976540;28;20190;-85
2022/11/09 09:14:47;;;;;;;22.50;16.70;;;;;;;20.58;57.67;95235.03;4974165;28;20204;-83
2022/11/09 09:17:14;;;;;;;17.77;15.90;;;;;;;20.86;57.74;95286.28;4973331;28;20194;-85
2022/11/09 09:19:43;;;;;;;18.58;15.60;;;;;;;20.74;57.88;95271.19;4974189;28;20217;-84
2022/11/09 09:22:10;;;;;;;22.30;16.25;;;;;;;20.68;57.68;95265.91;4973305;28;20684;-86
2022/11/09 09:24:37;;;;;;;20.13;15.35;;;;;;;20.80;57.54;95280.03;4973494;28;20220;-84
2022/11/09 09:27:04;;;;;;;20.63;16.38;;;;;;;20.80;57.74;95283.41;4972372;28;20194;-84
2022/11/09 09:29:31;;;;;;;20.63;16.00;;;;;;;20.69;57.73;95270.13;4972933;28;20194;-86
2022/11/09 09:31:57;;;;;;;23.55;15.95;;;;;;;20.77;57.78;95277.81;4972798;28;20201;-83
2022/11/09 09:34:24;;;;;;;19.08;16.30;;;;;;;20.73;57.72;95276.56;4972635;28;20201;-85
2022/11/09 09:36:54;;;;;;;21.25;16.02;;;;;;;20.73;58.02;95276.56;4972749;28;20264;-83
2022/11/09 09:39:21;;;;;;;18.35;15.50;;;;;;;20.71;58.00;95284.53;4972515;28;20280;-87
2022/11/09 09:41:53;;;;;;;18.20;15.88;;;;;;;20.62;57.62;95261.47;4973151;28;20280;-84
2022/11/09 09:44:30;;;;;;;19.00;15.15;;;;;;;20.70;57.72;95275.13;4975231;28;20232;-83
2022/11/09 09:47:07;;;;;;;22.45;16.35;;;;;;;20.69;57.63;95272.72;4976131;28;20280;-85
2022/11/09 09:49:40;;;;;;;18.95;15.30;;;;;;;20.45;57.50;95229.69;4990900;28;20195;-82
2022/11/09 09:52:16;;;;;;;18.90;16.73;;;;;;;20.68;57.70;95271.09;4992860;28;20212;-86
2022/11/09 09:54:49;;;;;;;18.10;14.82;;;;;;;20.67;57.64;95261.69;4979423;28;20201;-86
2022/11/09 09:57:19;;;;;;;19.40;15.32;;;;;;;20.68;57.88;95258.09;4976745;28;20240;-85
2022/11/09 09:59:50;;;;;;;20.80;16.25;;;;;;;20.69;57.89;95251.94;4977389;28;20190;-85
2022/11/09 10:02:23;;;;;;;21.52;16.63;;;;;;;20.62;57.77;95243.25;4977046;28;20205;-86
2022/11/09 10:04:50;;;;;;;19.95;16.08;;;;;;;20.70;57.77;95250.94;4977371;28;20225;-86
2022/11/09 10:07:27;;;;;;;18.33;15.90;;;;;;;20.71;57.66;95253.34;4975736;28;20190;-84
2022/11/09 10:10:20;;;;;;;19.20;15.60;;;;;;;20.68;57.48;95238.16;4979830;28;20197;-82
2022/11/09 10:13:07;;;;;;;20.70;16.55;;;;;;;20.76;57.36;95245.78;4986721;28;20193;-86
2022/11/09 10:15:42;;;;;;;22.35;15.98;;;;;;;20.69;57.49;95229.34;4980171;28;20691;-84
2022/11/09 10:18:35;;;;;;;24.87;16.30;;;;;;;20.84;57.29;95244.84;4975833;28;20205;-84
2022/11/09 10:21:23;;;;;;;23.30;16.52;;;;;;;20.85;57.40;95238.66;4975968;28;20217;-85
2022/11/09 10:24:16;;;;;;;19.33;16.13;;;;;;;20.89;57.39;95232.09;4975833;28;20189;-87
2022/11/09 10:26:46;;;;;;;22.80;16.65;;;;;;;20.91;57.37;95230.13;4975321;28;20182;-84
2022/11/09 10:29:21;;;;;;;20.30;17.23;;;;;;;20.82;57.16;95214.84;4975459;28;20205;-85
2022/11/09 10:31:52;;;;;;;21.80;17.60;;;;;;;20.98;57.33;95228.38;4975502;28;20197;-85
2022/11/09 10:34:21;;;;;;;21.20;16.05;;;;;;;21.02;57.14;95229.59;4975432;28;20216;-86
2022/11/09 10:36:58;;;;;;;21.67;15.63;;;;;;;21.05;57.05;95226.63;4975113;28;20190;-85
2022/11/09 10:39:35;;;;;;;20.75;17.05;;;;;;;21.04;56.94;95219.81;4978047;28;20189;-84
2022/11/09 10:42:02;;;;;;;20.13;16.30;;;;;;;21.13;56.85;95217.06;4978624;28;20190;-84
2022/11/09 10:44:29;;;;;;;21.27;16.75;;;;;;;21.17;57.00;95218.31;4989254;28;20226;-84
2022/11/09 10:47:05;;;;;;;23.08;17.33;;;;;;;21.20;56.96;95213.53;4996254;28;20180;-83
2022/11/09 10:49:33;;;;;;;20.45;16.83;;;;;;;21.19;56.69;95200.69;4987871;28;20261;-84
2022/11/09 10:52:00;;;;;;;22.50;17.92;;;;;;;21.23;56.91;95201.91;4978001;28;20186;-85
2022/11/09 10:54:32;;;;;;;23.23;17.77;;;;;;;21.28;56.85;95205.56;4993219;28;20181;-83
2022/11/09 10:57:04;;;;;;;23.25;17.50;;;;;;;21.33;56.71;95206.81;4981047;28;20288;-87
2022/11/09 10:59:45;;;;;;;25.13;17.17;;;;;;;21.35;56.70;95195.22;4974467;28;20194;-86
2022/11/09 11:02:52;;;;;;;20.38;16.50;;;;;;;21.37;56.41;95195.81;4974316;28;20193;-87
2022/11/09 11:05:25;;;;;;;21.35;17.52;;;;;;;21.20;56.78;95169.31;4914584;29;20327;-84
2022/11/09 11:07:52;;;;;;;20.77;17.75;;;;;;;21.31;56.76;95188.78;4914997;29;20202;-84
2022/11/09 11:10:22;;;;;;;24.27;18.50;;;;;;;21.25;56.76;95177.34;4916221;29;20195;-86
2022/11/09 11:12:57;;;;;;;22.02;16.20;;;;;;;21.28;56.46;95176.94;4916228;29;20859;-85
2022/11/09 11:15:26;;;;;;;24.42;18.15;;;;;;;21.36;56.48;95189.03;4916858;29;20210;-85
2022/11/09 11:18:01;;;;;;;25.40;17.90;;;;;;;21.33;56.72;95189.44;4917472;29;20672;-83
2022/11/09 11:20:31;;;;;;;22.17;17.67;;;;;;;21.25;56.66;95172.13;4920711;29;20188;-84
2022/11/09 11:23:12;;;;;;;22.63;18.35;;;;;;;21.32;56.50;95184.41;4929139;29;20200;-82
2022/11/09 11:26:00;;;;;;;20.85;17.00;;;;;;;21.30;56.64;95182.75;4929096;29;20223;-84
2022/11/09 11:28:34;;;;;;;19.95;17.10;;;;;;;21.30;56.72;95174.16;4910769;29;20321;-84